createdAt,value
2023-03-12T00:01:59.721Z,85.99
2023-03-12T00:04:26.636Z,85.68
2023-03-12T00:06:53.606Z,85.49
2023-03-12T00:09:20.129Z,85.57
2023-03-12T00:11:46.672Z,86.13
2023-03-12T00:14:13.302Z,85.61
2023-03-12T00:16:39.854Z,85.90
2023-03-12T00:19:06.574Z,86.31
2023-03-12T00:21:33.700Z,86.00
2023-03-12T00:24:00.216Z,85.74
2023-03-12T00:26:26.773Z,85.73
2023-03-12T00:28:53.769Z,85.62
2023-03-12T00:31:32.888Z,85.28
2023-03-12T00:34:01.029Z,85.01
2023-03-12T00:36:30.288Z,84.03
2023-03-12T00:38:58.317Z,83.43
2023-03-12T00:41:25.770Z,84.16
2023-03-12T00:43:52.840Z,83.82
2023-03-12T00:46:20.211Z,82.84
2023-03-12T00:48:46.962Z,82.62
2023-03-12T00:51:14.158Z,83.18
2023-03-12T00:53:40.782Z,83.04
2023-03-12T00:56:07.729Z,83.27
2023-03-12T00:58:34.304Z,84.06
2023-03-12T01:01:01.050Z,84.55
2023-03-12T01:03:27.851Z,84.48
2023-03-12T01:05:57.208Z,84.70
2023-03-12T01:08:24.503Z,84.38
2023-03-12T01:10:51.240Z,84.32
2023-03-12T01:13:17.907Z,84.27
2023-03-12T01:15:44.401Z,83.85
2023-03-12T01:18:11.021Z,83.99
2023-03-12T01:20:37.554Z,83.39
2023-03-12T01:23:04.219Z,83.97
2023-03-12T01:25:30.784Z,84.17
2023-03-12T01:27:57.310Z,84.47
2023-03-12T01:30:23.832Z,84.53
2023-03-12T01:32:51.957Z,85.22
2023-03-12T01:35:18.785Z,84.53
2023-03-12T01:37:45.783Z,84.18
2023-03-12T01:40:20.005Z,84.52
2023-03-12T01:42:57.398Z,84.59
2023-03-12T01:46:03.054Z,85.27
2023-03-12T01:48:36.413Z,85.59
2023-03-12T01:51:03.279Z,85.71
2023-03-12T01:53:30.702Z,85.63
2023-03-12T01:55:59.290Z,85.51
2023-03-12T01:58:27.554Z,85.87
2023-03-12T02:00:54.797Z,86.42
2023-03-12T02:03:21.462Z,87.18
2023-03-12T02:05:53.358Z,87.32
2023-03-12T02:08:20.587Z,87.95
2023-03-12T02:10:47.553Z,88.05
2023-03-12T02:13:14.383Z,87.93
2023-03-12T02:15:41.130Z,88.05
2023-03-12T02:18:11.386Z,88.50
2023-03-12T02:21:04.971Z,89.05
2023-03-12T02:24:02.534Z,89.11
2023-03-12T02:26:30.935Z,89.36
2023-03-12T02:29:00.550Z,89.68
2023-03-12T02:31:33.126Z,90.00
2023-03-12T02:34:00.606Z,90.59
2023-03-12T02:36:30.288Z,91.05
2023-03-12T02:38:57.197Z,90.94
2023-03-12T02:41:37.670Z,91.10
2023-03-12T02:44:07.303Z,91.47
2023-03-12T02:46:38.189Z,92.02
2023-03-12T02:49:05.240Z,91.85
2023-03-12T02:51:31.806Z,91.69
2023-03-12T02:53:58.402Z,91.65
2023-03-12T02:56:27.216Z,91.80
2023-03-12T02:58:54.304Z,92.01
2023-03-12T03:01:21.700Z,92.35
2023-03-12T03:03:49.158Z,92.04
2023-03-12T03:06:16.660Z,92.16
2023-03-12T03:08:43.810Z,91.77
2023-03-12T03:11:10.940Z,92.07
2023-03-12T03:13:37.412Z,92.26
2023-03-12T03:16:08.864Z,92.58
2023-03-12T03:18:38.059Z,92.44
2023-03-12T03:21:06.992Z,92.62
2023-03-12T03:23:33.663Z,92.61
2023-03-12T03:26:01.183Z,92.56
2023-03-12T03:28:29.430Z,93.30
2023-03-12T03:30:58.205Z,93.19
2023-03-12T03:33:25.152Z,93.38
2023-03-12T03:35:51.938Z,93.99
2023-03-12T03:38:18.583Z,93.71
2023-03-12T03:40:46.181Z,93.57
2023-03-12T03:43:12.701Z,93.55
2023-03-12T03:45:39.265Z,93.54
2023-03-12T03:48:06.385Z,93.69
2023-03-12T03:50:32.960Z,93.56
2023-03-12T03:53:00.313Z,94.29
2023-03-12T03:55:26.916Z,94.14
2023-03-12T03:57:53.475Z,93.88
2023-03-12T04:00:20.244Z,94.20
2023-03-12T04:02:46.857Z,94.10
2023-03-12T04:05:15.914Z,93.96
2023-03-12T04:07:42.448Z,93.93
2023-03-12T04:10:09.702Z,94.26
2023-03-12T04:12:36.177Z,94.40
2023-03-12T04:15:02.862Z,93.86
2023-03-12T04:17:29.375Z,93.99
2023-03-12T04:19:55.909Z,93.92
2023-03-12T04:22:22.552Z,93.71
2023-03-12T04:24:49.179Z,93.81
2023-03-12T04:27:15.702Z,93.56
2023-03-12T04:29:42.331Z,93.83
2023-03-12T04:32:08.914Z,93.79
2023-03-12T04:34:35.549Z,93.90
2023-03-12T04:37:03.307Z,94.32
2023-03-12T04:39:29.913Z,94.74
2023-03-12T04:41:56.522Z,94.70
2023-03-12T04:44:23.216Z,95.11
2023-03-12T04:46:49.959Z,95.19
2023-03-12T04:49:16.622Z,95.38
2023-03-12T04:51:43.291Z,95.55
2023-03-12T04:54:09.940Z,95.47
2023-03-12T04:56:36.446Z,95.80
2023-03-12T04:59:03.017Z,95.67
2023-03-12T05:01:32.184Z,95.58
2023-03-12T05:03:59.062Z,95.54
2023-03-12T05:06:26.059Z,95.34
2023-03-12T05:08:52.989Z,95.66
2023-03-12T05:11:20.415Z,95.76
2023-03-12T05:13:47.109Z,95.98
2023-03-12T05:16:15.283Z,96.10
2023-03-12T05:18:42.834Z,96.54
2023-03-12T05:21:14.844Z,96.29
2023-03-12T05:23:42.576Z,96.57
2023-03-12T05:26:22.112Z,96.26
2023-03-12T05:28:49.128Z,96.30
2023-03-12T05:31:16.586Z,96.17
2023-03-12T05:33:43.289Z,96.51
2023-03-12T05:36:10.999Z,96.08
2023-03-12T05:38:37.584Z,96.07
2023-03-12T05:41:04.629Z,96.39
2023-03-12T05:43:31.464Z,96.45
2023-03-12T05:46:03.828Z,96.65
2023-03-12T05:48:31.637Z,96.70
2023-03-12T05:50:58.372Z,96.86
2023-03-12T05:53:24.945Z,97.25
2023-03-12T05:55:51.576Z,96.88
2023-03-12T05:58:18.187Z,96.90
2023-03-12T06:00:45.265Z,96.13
2023-03-12T06:03:12.227Z,95.63
2023-03-12T06:05:39.080Z,94.72
2023-03-12T06:08:06.535Z,94.33
2023-03-12T06:10:33.132Z,94.44
2023-03-12T06:12:59.720Z,94.81
2023-03-12T06:15:26.341Z,94.88
2023-03-12T06:17:52.904Z,94.89
2023-03-12T06:20:19.438Z,94.14
2023-03-12T06:22:46.325Z,94.46
2023-03-12T06:25:12.906Z,93.68
2023-03-12T06:27:41.100Z,93.04
2023-03-12T06:30:08.379Z,91.44
2023-03-12T06:32:34.955Z,90.49
2023-03-12T06:35:01.675Z,90.11
2023-03-12T06:37:28.291Z,88.91
2023-03-12T06:39:55.094Z,87.73
2023-03-12T06:42:22.573Z,87.61
2023-03-12T06:44:52.312Z,86.78
2023-03-12T06:47:19.197Z,86.50
2023-03-12T06:49:45.753Z,85.88
2023-03-12T06:52:12.286Z,83.49
2023-03-12T06:54:38.879Z,81.23
2023-03-12T06:57:05.581Z,80.51
2023-03-12T06:59:32.330Z,81.92
2023-03-12T07:01:58.910Z,81.12
2023-03-12T07:04:25.556Z,81.49
2023-03-12T07:06:52.363Z,81.50
2023-03-12T07:09:20.124Z,82.24
2023-03-12T07:11:46.719Z,81.62
2023-03-12T07:14:13.693Z,80.53
2023-03-12T07:16:40.347Z,80.03
2023-03-12T07:19:06.960Z,77.97
2023-03-12T07:21:33.573Z,76.89
2023-03-12T07:24:00.918Z,76.19
2023-03-12T07:26:27.694Z,76.32
2023-03-12T07:28:54.303Z,75.60
2023-03-12T07:31:20.894Z,73.22
2023-03-12T07:33:47.468Z,72.20
2023-03-12T07:36:14.321Z,71.72
2023-03-12T07:38:41.028Z,69.26
2023-03-12T07:41:07.672Z,68.47
2023-03-12T07:43:34.390Z,67.49
2023-03-12T07:46:01.064Z,69.59
2023-03-12T07:48:27.585Z,68.96
2023-03-12T07:50:54.133Z,70.08
2023-03-12T07:53:20.984Z,67.60
2023-03-12T07:55:48.467Z,66.39
2023-03-12T07:58:16.602Z,66.84
2023-03-12T08:00:44.278Z,65.30
2023-03-12T08:03:11.523Z,65.05
2023-03-12T08:05:38.269Z,66.12
2023-03-12T08:08:04.997Z,63.27
2023-03-12T08:10:31.853Z,65.21
2023-03-12T08:12:58.402Z,65.09
2023-03-12T08:15:25.350Z,66.10
2023-03-12T08:17:51.872Z,68.25
2023-03-12T08:20:18.528Z,67.17
2023-03-12T08:22:45.031Z,66.49
2023-03-12T08:25:12.021Z,63.76
2023-03-12T08:27:38.679Z,62.86
2023-03-12T08:30:06.746Z,59.99
2023-03-12T08:32:33.510Z,55.03
2023-03-12T08:35:00.274Z,56.79
2023-03-12T08:37:26.836Z,55.92
2023-03-12T08:39:53.374Z,56.04
2023-03-12T08:42:19.963Z,55.02
2023-03-12T08:44:46.539Z,53.24
2023-03-12T08:47:13.158Z,55.45
2023-03-12T08:49:39.766Z,52.22
2023-03-12T08:52:06.292Z,51.03
2023-03-12T08:54:32.863Z,45.72
2023-03-12T08:57:00.328Z,44.09
2023-03-12T08:59:27.015Z,44.55
2023-03-12T09:01:53.546Z,46.73
2023-03-12T09:04:20.224Z,45.05
2023-03-12T09:06:46.838Z,45.76
2023-03-12T09:09:13.521Z,44.79
2023-03-12T09:11:40.905Z,41.98
2023-03-12T09:14:46.272Z,39.46
2023-03-12T09:16:54.334Z,40.54
2023-03-12T09:19:21.062Z,43.73
2023-03-12T09:21:47.642Z,45.56
2023-03-12T09:24:14.191Z,48.06
2023-03-12T09:26:40.759Z,51.29
2023-03-12T09:29:07.240Z,50.55
2023-03-12T09:31:34.602Z,47.87
2023-03-12T09:34:01.266Z,49.05
2023-03-12T09:36:28.125Z,48.59
2023-03-12T09:38:54.827Z,47.81
2023-03-12T09:41:28.063Z,48.81
2023-03-12T09:44:04.772Z,50.85
2023-03-12T09:46:37.539Z,48.91
2023-03-12T09:49:14.406Z,51.30
2023-03-12T09:51:49.222Z,53.85
2023-03-12T09:54:28.171Z,53.12
2023-03-12T09:57:00.440Z,51.20
2023-03-12T09:59:27.115Z,52.30
2023-03-12T10:02:01.642Z,51.83
2023-03-12T10:04:58.439Z,51.36
2023-03-12T10:07:42.823Z,49.22
2023-03-12T10:10:22.678Z,50.52
2023-03-12T10:13:40.056Z,50.23
2023-03-12T10:16:34.208Z,53.32
2023-03-12T10:19:14.189Z,53.64
2023-03-12T10:21:56.887Z,53.76
2023-03-12T10:24:45.179Z,53.19
2023-03-12T10:27:15.460Z,52.10
2023-03-12T10:29:44.981Z,51.49
2023-03-12T10:32:11.785Z,50.21
2023-03-12T10:34:41.166Z,47.23
2023-03-12T10:37:17.155Z,43.87
2023-03-12T10:39:44.651Z,41.89
2023-03-12T10:42:18.353Z,42.75
2023-03-12T10:44:49.051Z,43.76
2023-03-12T10:47:35.813Z,45.79
2023-03-12T10:50:22.544Z,46.56
2023-03-12T10:52:51.949Z,48.10
2023-03-12T10:55:26.414Z,48.30
2023-03-12T10:57:53.726Z,49.41
2023-03-12T11:00:28.942Z,49.82
2023-03-12T11:03:05.433Z,51.70
2023-03-12T11:05:49.049Z,49.56
2023-03-12T11:08:27.889Z,53.57
2023-03-12T11:10:58.335Z,53.38
2023-03-12T11:13:28.398Z,49.26
2023-03-12T11:15:57.073Z,52.47
2023-03-12T11:18:34.244Z,51.92
2023-03-12T11:21:09.912Z,49.53
2023-03-12T11:23:44.912Z,50.65
2023-03-12T11:26:17.833Z,47.05
2023-03-12T11:28:48.812Z,45.44
2023-03-12T11:31:33.375Z,45.52
2023-03-12T11:34:19.211Z,42.96
2023-03-12T11:36:53.531Z,43.19
2023-03-12T11:39:41.114Z,43.44
2023-03-12T11:42:51.824Z,43.73
2023-03-12T11:45:47.260Z,43.47
2023-03-12T11:48:37.120Z,45.93
2023-03-12T11:51:27.788Z,46.09
2023-03-12T11:54:06.125Z,45.59
2023-03-12T11:57:01.967Z,48.17
2023-03-12T11:59:48.733Z,48.82
2023-03-12T12:02:56.238Z,49.45
2023-03-12T12:05:34.533Z,49.81
2023-03-12T12:08:39.378Z,48.73
2023-03-12T12:11:17.318Z,46.21
2023-03-12T12:13:51.195Z,47.06
2023-03-12T12:16:31.354Z,46.94
2023-03-12T12:19:02.199Z,45.62
2023-03-12T12:21:42.020Z,47.13
2023-03-12T12:24:18.325Z,46.24
2023-03-12T12:26:54.753Z,47.65
2023-03-12T12:29:31.288Z,47.77
2023-03-12T12:32:00.636Z,48.57
2023-03-12T12:34:49.177Z,46.42
2023-03-12T12:37:46.410Z,45.91
2023-03-12T12:40:37.517Z,46.28
2023-03-12T12:43:25.242Z,47.51
2023-03-12T12:45:53.714Z,46.30
2023-03-12T12:48:38.127Z,47.12
2023-03-12T12:51:08.706Z,46.37
2023-03-12T12:53:54.101Z,45.99
2023-03-12T12:56:28.754Z,45.19
2023-03-12T12:59:27.301Z,44.97
2023-03-12T13:01:56.182Z,44.81
2023-03-12T13:04:34.637Z,44.83
2023-03-12T13:07:13.323Z,45.04
2023-03-12T13:09:43.594Z,44.77
2023-03-12T13:12:25.200Z,43.21
2023-03-12T13:14:54.739Z,44.20
2023-03-12T13:17:21.772Z,43.46
2023-03-12T13:20:00.837Z,43.72
2023-03-12T13:22:55.512Z,45.86
2023-03-12T13:25:40.090Z,44.41
2023-03-12T13:28:30.279Z,43.91
2023-03-12T13:30:57.832Z,44.22
2023-03-12T13:33:41.386Z,43.72
2023-03-12T13:36:24.083Z,45.76
2023-03-12T13:39:05.782Z,45.59
2023-03-12T13:41:44.446Z,45.33
2023-03-12T13:44:23.008Z,45.85
2023-03-12T13:47:28.592Z,45.51
2023-03-12T13:49:59.472Z,44.93
2023-03-12T13:52:30.762Z,44.23
2023-03-12T13:55:07.244Z,43.92
2023-03-12T13:57:48.032Z,44.88
2023-03-12T14:00:24.609Z,47.12
2023-03-12T14:02:59.155Z,45.09
2023-03-12T14:05:27.627Z,45.36
2023-03-12T14:08:16.172Z,45.20
2023-03-12T14:10:56.981Z,45.75
2023-03-12T14:13:44.428Z,46.30
2023-03-12T14:16:26.410Z,47.81
2023-03-12T14:18:53.861Z,47.44
2023-03-12T14:21:23.600Z,47.11
2023-03-12T14:23:57.298Z,46.63
2023-03-12T14:26:28.201Z,47.21
2023-03-12T14:29:00.267Z,45.57
2023-03-12T14:31:29.107Z,44.72
2023-03-12T14:34:01.924Z,46.52
2023-03-12T14:36:46.566Z,45.08
2023-03-12T14:39:32.203Z,46.03
2023-03-12T14:42:05.325Z,45.83
2023-03-12T14:44:33.974Z,47.05
2023-03-12T14:47:11.133Z,47.33
2023-03-12T14:49:42.939Z,47.64
2023-03-12T14:52:27.079Z,48.46
2023-03-12T14:55:00.310Z,48.98
2023-03-12T14:57:26.964Z,49.70
2023-03-12T14:59:56.302Z,52.19
2023-03-12T15:02:23.847Z,52.60
2023-03-12T15:04:55.220Z,52.39
2023-03-12T15:07:35.718Z,52.58
2023-03-12T15:10:06.945Z,53.68
2023-03-12T15:12:37.091Z,53.71
2023-03-12T15:15:10.243Z,53.25
2023-03-12T15:17:37.385Z,54.39
2023-03-12T15:20:09.242Z,53.72
2023-03-12T15:22:36.494Z,55.11
2023-03-12T15:25:14.900Z,54.22
2023-03-12T15:27:41.361Z,54.79
2023-03-12T15:30:27.620Z,55.69
2023-03-12T15:33:26.542Z,56.41
2023-03-12T15:36:14.826Z,56.93
2023-03-12T15:38:50.016Z,57.34
2023-03-12T15:41:23.163Z,57.83
2023-03-12T15:43:54.479Z,58.19
2023-03-12T15:46:22.274Z,58.52
2023-03-12T15:48:57.742Z,59.37
2023-03-12T15:51:36.290Z,60.29
2023-03-12T15:54:14.799Z,61.15
2023-03-12T15:56:41.343Z,61.42
2023-03-12T15:59:28.404Z,61.62
2023-03-12T16:01:56.845Z,61.83
2023-03-12T16:04:24.530Z,61.91
2023-03-12T16:06:51.738Z,62.44
2023-03-12T16:09:22.232Z,62.24
2023-03-12T16:11:49.154Z,63.14
2023-03-12T16:14:30.667Z,63.95
2023-03-12T16:16:57.511Z,64.05
2023-03-12T16:19:26.609Z,65.34
2023-03-12T16:21:53.174Z,66.88
2023-03-12T16:24:19.743Z,67.85
2023-03-12T16:26:58.016Z,69.33
2023-03-12T16:29:33.214Z,70.42
2023-03-12T16:32:00.508Z,70.91
2023-03-12T16:34:27.629Z,70.10
2023-03-12T16:36:54.399Z,70.10
2023-03-12T16:39:20.998Z,69.91
2023-03-12T16:41:47.852Z,69.75
2023-03-12T16:44:20.311Z,69.95
2023-03-12T16:46:47.275Z,69.39
2023-03-12T16:49:16.561Z,69.91
2023-03-12T16:51:43.265Z,69.83
2023-03-12T16:54:11.982Z,69.84
2023-03-12T16:56:46.180Z,71.34
2023-03-12T16:59:23.594Z,72.46
2023-03-12T17:01:50.527Z,73.55
2023-03-12T17:04:17.103Z,74.06
2023-03-12T17:06:43.675Z,74.41
2023-03-12T17:09:10.362Z,75.52
2023-03-12T17:11:38.100Z,76.24
2023-03-12T17:14:16.366Z,76.64
2023-03-12T17:16:43.125Z,77.52
2023-03-12T17:19:09.818Z,77.86
2023-03-12T17:21:37.331Z,78.80
2023-03-12T17:24:04.229Z,78.59
2023-03-12T17:26:31.033Z,79.04
2023-03-12T17:28:57.571Z,80.13
2023-03-12T17:31:24.697Z,80.60
2023-03-12T17:33:51.347Z,80.48
2023-03-12T17:36:17.894Z,81.01
2023-03-12T17:38:44.473Z,81.20
2023-03-12T17:41:25.522Z,81.22
2023-03-12T17:43:52.994Z,81.35
2023-03-12T17:46:19.522Z,81.86
2023-03-12T17:48:46.183Z,82.09
2023-03-12T17:51:12.872Z,83.73
2023-03-12T17:53:39.710Z,84.08
2023-03-12T17:56:06.998Z,84.28
2023-03-12T17:58:33.700Z,86.20
2023-03-12T18:01:00.786Z,86.25
2023-03-12T18:03:27.430Z,85.44
2023-03-12T18:05:54.281Z,86.21
2023-03-12T18:08:21.669Z,86.10
2023-03-12T18:10:48.958Z,85.95
2023-03-12T18:13:15.684Z,87.02
2023-03-12T18:15:42.216Z,87.70
2023-03-12T18:18:08.845Z,88.09
2023-03-12T18:20:39.495Z,88.54
2023-03-12T18:23:06.674Z,88.82
2023-03-12T18:25:33.419Z,89.64
2023-03-12T18:28:00.041Z,90.04
2023-03-12T18:30:28.134Z,89.71
2023-03-12T18:32:54.868Z,90.24
2023-03-12T18:35:22.642Z,91.18
2023-03-12T18:37:51.775Z,91.04
2023-03-12T18:40:18.317Z,92.82
2023-03-12T18:42:44.776Z,92.66
2023-03-12T18:45:11.870Z,92.92
2023-03-12T18:47:44.604Z,92.54
2023-03-12T18:50:12.342Z,93.08
2023-03-12T18:52:38.882Z,93.40
2023-03-12T18:55:05.631Z,93.43
2023-03-12T18:57:32.263Z,93.99
2023-03-12T18:59:59.413Z,94.58
2023-03-12T19:02:26.155Z,94.27
2023-03-12T19:04:55.838Z,94.35
2023-03-12T19:07:23.138Z,95.79
2023-03-12T19:09:50.199Z,96.26
2023-03-12T19:12:16.783Z,95.86
2023-03-12T19:14:43.355Z,96.67
2023-03-12T19:17:09.871Z,96.56
2023-03-12T19:19:36.447Z,97.27
2023-03-12T19:22:04.524Z,96.94
2023-03-12T19:24:31.158Z,97.26
2023-03-12T19:26:57.695Z,96.71
2023-03-12T19:29:24.433Z,96.51
2023-03-12T19:31:51.136Z,96.26
2023-03-12T19:34:17.906Z,96.67
2023-03-12T19:36:44.483Z,96.81
2023-03-12T19:39:21.156Z,97.54
2023-03-12T19:41:48.531Z,97.71
2023-03-12T19:44:14.982Z,97.85
2023-03-12T19:46:43.190Z,98.40
2023-03-12T19:49:09.844Z,97.94
2023-03-12T19:51:36.643Z,97.80
2023-03-12T19:54:03.235Z,97.96
2023-03-12T19:56:29.780Z,98.30
2023-03-12T19:58:56.378Z,98.07
2023-03-12T20:01:22.948Z,98.76
2023-03-12T20:03:49.631Z,98.66
2023-03-12T20:06:16.284Z,98.69
2023-03-12T20:08:44.442Z,98.64
2023-03-12T20:11:11.037Z,98.71
2023-03-12T20:13:38.674Z,98.03
2023-03-12T20:16:06.713Z,98.88
2023-03-12T20:18:33.499Z,98.78
2023-03-12T20:21:00.140Z,98.91
2023-03-12T20:23:26.818Z,98.95
2023-03-12T20:25:53.432Z,98.99
2023-03-12T20:28:20.072Z,98.98
2023-03-12T20:30:46.669Z,99.28
2023-03-12T20:33:13.615Z,99.20
2023-03-12T20:35:40.408Z,99.37
2023-03-12T20:38:07.027Z,99.43
2023-03-12T20:40:33.570Z,99.50
2023-03-12T20:43:04.603Z,99.17
2023-03-12T20:45:34.960Z,99.41
2023-03-12T20:48:01.719Z,99.50
2023-03-12T20:50:28.741Z,99.07
2023-03-12T20:52:55.320Z,99.13
2023-03-12T20:55:22.004Z,99.19
2023-03-12T20:57:48.987Z,99.42
2023-03-12T21:00:15.850Z,99.59
2023-03-12T21:02:42.627Z,99.37
2023-03-12T21:05:11.287Z,99.56
2023-03-12T21:07:37.952Z,99.59
2023-03-12T21:10:05.488Z,99.86
2023-03-12T21:12:32.287Z,99.87
2023-03-12T21:15:06.218Z,99.83
2023-03-12T21:17:34.368Z,99.55
2023-03-12T21:20:02.133Z,99.33
2023-03-12T21:22:31.844Z,99.33
2023-03-12T21:24:58.420Z,99.51
2023-03-12T21:27:24.928Z,99.68
2023-03-12T21:29:53.067Z,99.36
2023-03-12T21:32:20.829Z,99.52
2023-03-12T21:34:48.023Z,99.70
2023-03-12T21:37:15.140Z,99.78
2023-03-12T21:39:42.667Z,99.99
2023-03-12T21:42:09.554Z,99.99
2023-03-12T21:44:37.038Z,99.99
2023-03-12T21:47:04.790Z,99.99
2023-03-12T21:49:34.020Z,99.99
2023-03-12T21:52:01.242Z,99.99
2023-03-12T21:54:32.790Z,99.99
2023-03-12T21:57:02.648Z,99.99
2023-03-12T21:59:30.358Z,99.99
2023-03-12T22:01:57.769Z,99.99
2023-03-12T22:04:24.711Z,99.96
2023-03-12T22:06:51.618Z,99.99
2023-03-12T22:09:18.271Z,99.99
2023-03-12T22:11:44.904Z,99.99
2023-03-12T22:14:11.406Z,99.99
2023-03-12T22:16:38.013Z,99.99
2023-03-12T22:19:04.700Z,99.99
2023-03-12T22:21:31.235Z,99.99
2023-03-12T22:23:57.788Z,99.99
2023-03-12T22:26:26.709Z,99.99
2023-03-12T22:28:55.672Z,99.99
2023-03-12T22:31:23.766Z,99.99
2023-03-12T22:33:50.387Z,99.99
2023-03-12T22:36:18.554Z,99.99
2023-03-12T22:38:47.573Z,99.93
2023-03-12T22:41:18.295Z,99.77
2023-03-12T22:43:45.662Z,99.99
2023-03-12T22:46:14.063Z,99.99
2023-03-12T22:48:40.726Z,99.99
2023-03-12T22:51:07.338Z,99.99
2023-03-12T22:53:34.559Z,99.99
2023-03-12T22:56:03.737Z,99.87
2023-03-12T22:58:30.505Z,99.91
2023-03-12T23:01:10.750Z,99.97
2023-03-12T23:03:38.899Z,99.80
2023-03-12T23:06:10.326Z,99.83
2023-03-12T23:08:37.069Z,99.84
2023-03-12T23:11:05.179Z,99.80
2023-03-12T23:13:34.073Z,99.92
2023-03-12T23:16:08.681Z,99.78
2023-03-12T23:18:36.098Z,99.89
2023-03-12T23:21:05.931Z,99.79
2023-03-12T23:23:33.253Z,99.70
2023-03-12T23:26:00.842Z,99.71
2023-03-12T23:28:29.025Z,99.67
2023-03-12T23:30:58.383Z,99.33
2023-03-12T23:33:26.324Z,99.74
2023-03-12T23:35:58.666Z,99.91
2023-03-12T23:38:26.564Z,99.70
2023-03-12T23:40:53.421Z,99.90
2023-03-12T23:43:20.221Z,99.82
2023-03-12T23:45:46.831Z,99.81
2023-03-12T23:48:13.449Z,99.96
2023-03-12T23:50:41.124Z,99.99
2023-03-12T23:53:07.794Z,99.99
2023-03-12T23:55:34.473Z,99.99
2023-03-12T23:58:00.970Z,99.99
